sensor_id;sensor_type;location;lat;lon;timestamp;pressure;altitude;pressure_sealevel;temperature;humidity
62928;BME280;51070;52.236;-0.892;2023-05-22T00:00:46;101310.85;;;13.52;57.23
62928;BME280;51070;52.236;-0.892;2023-05-22T00:03:12;101307.04;;;13.52;57.24
62928;BME280;51070;52.236;-0.892;2023-05-22T00:05:38;101306.54;;;13.53;57.32
62928;BME280;51070;52.236;-0.892;2023-05-22T00:08:08;101302.58;;;13.54;57.32
62928;BME280;51070;52.236;-0.892;2023-05-22T00:10:37;101301.41;;;13.56;57.49
62928;BME280;51070;52.236;-0.892;2023-05-22T00:13:03;101298.91;;;13.59;57.28
62928;BME280;51070;52.236;-0.892;2023-05-22T00:15:29;101299.37;;;13.63;57.32
62928;BME280;51070;52.236;-0.892;2023-05-22T00:17:54;101300.13;;;13.65;57.40
62928;BME280;51070;52.236;-0.892;2023-05-22T00:20:20;101299.61;;;13.65;57.46
62928;BME280;51070;52.236;-0.892;2023-05-22T00:22:45;101299.08;;;13.65;57.54
62928;BME280;51070;52.236;-0.892;2023-05-22T00:25:14;101300.14;;;13.65;57.59
62928;BME280;51070;52.236;-0.892;2023-05-22T00:27:42;101295.44;;;13.65;57.81
62928;BME280;51070;52.236;-0.892;2023-05-22T00:30:08;101297.68;;;13.64;57.95
62928;BME280;51070;52.236;-0.892;2023-05-22T00:32:34;101300.23;;;13.62;58.15
62928;BME280;51070;52.236;-0.892;2023-05-22T00:34:59;101298.08;;;13.60;58.30
62928;BME280;51070;52.236;-0.892;2023-05-22T00:37:25;101293.59;;;13.62;58.06
62928;BME280;51070;52.236;-0.892;2023-05-22T00:39:50;101292.73;;;13.62;58.22
62928;BME280;51070;52.236;-0.892;2023-05-22T00:42:17;101291.66;;;13.60;58.29
62928;BME280;51070;52.236;-0.892;2023-05-22T00:44:42;101291.83;;;13.60;58.31
62928;BME280;51070;52.236;-0.892;2023-05-22T00:47:08;101288.86;;;13.59;58.41
62928;BME280;51070;52.236;-0.892;2023-05-22T00:49:33;101286.10;;;13.60;58.80
62928;BME280;51070;52.236;-0.892;2023-05-22T00:51:59;101282.98;;;13.60;58.71
62928;BME280;51070;52.236;-0.892;2023-05-22T00:54:25;101280.53;;;13.60;58.68
62928;BME280;51070;52.236;-0.892;2023-05-22T00:56:51;101279.09;;;13.58;58.79
62928;BME280;51070;52.236;-0.892;2023-05-22T00:59:17;101282.54;;;13.57;58.94
62928;BME280;51070;52.236;-0.892;2023-05-22T01:01:43;101281.25;;;13.55;59.15
62928;BME280;51070;52.236;-0.892;2023-05-22T01:04:10;101281.04;;;13.53;59.44
62928;BME280;51070;52.236;-0.892;2023-05-22T01:06:37;101283.61;;;13.53;59.63
62928;BME280;51070;52.236;-0.892;2023-05-22T01:09:03;101285.01;;;13.52;59.49
62928;BME280;51070;52.236;-0.892;2023-05-22T01:19:56;101278.93;;;13.47;59.60
62928;BME280;51070;52.236;-0.892;2023-05-22T01:33:13;101275.55;;;13.44;59.57
62928;BME280;51070;52.236;-0.892;2023-05-22T01:35:42;101275.14;;;13.42;59.44
62928;BME280;51070;52.236;-0.892;2023-05-22T01:38:09;101271.01;;;13.43;59.49
62928;BME280;51070;52.236;-0.892;2023-05-22T01:40:36;101271.30;;;13.41;59.36
62928;BME280;51070;52.236;-0.892;2023-05-22T01:43:02;101269.02;;;13.40;59.42
62928;BME280;51070;52.236;-0.892;2023-05-22T01:45:27;101267.69;;;13.42;59.44
62928;BME280;51070;52.236;-0.892;2023-05-22T01:47:56;101265.34;;;13.45;59.52
62928;BME280;51070;52.236;-0.892;2023-05-22T01:50:22;101267.59;;;13.45;59.80
62928;BME280;51070;52.236;-0.892;2023-05-22T01:55:39;101265.89;;;13.40;60.03
62928;BME280;51070;52.236;-0.892;2023-05-22T02:01:00;101262.52;;;13.37;60.16
62928;BME280;51070;52.236;-0.892;2023-05-22T02:03:30;101260.95;;;13.37;60.21
62928;BME280;51070;52.236;-0.892;2023-05-22T02:05:56;101264.80;;;13.39;60.00
62928;BME280;51070;52.236;-0.892;2023-05-22T02:08:24;101264.83;;;13.40;60.03
62928;BME280;51070;52.236;-0.892;2023-05-22T02:10:51;101264.20;;;13.41;59.91
62928;BME280;51070;52.236;-0.892;2023-05-22T02:13:18;101263.54;;;13.42;60.14
62928;BME280;51070;52.236;-0.892;2023-05-22T02:15:45;101258.71;;;13.43;59.88
62928;BME280;51070;52.236;-0.892;2023-05-22T02:18:11;101260.80;;;13.44;59.72
62928;BME280;51070;52.236;-0.892;2023-05-22T02:20:40;101260.25;;;13.43;59.56
62928;BME280;51070;52.236;-0.892;2023-05-22T02:23:06;101259.70;;;13.42;59.72
62928;BME280;51070;52.236;-0.892;2023-05-22T02:25:31;101261.95;;;13.42;59.42
62928;BME280;51070;52.236;-0.892;2023-05-22T02:27:57;101259.10;;;13.40;59.39
62928;BME280;51070;52.236;-0.892;2023-05-22T02:30:22;101259.94;;;13.38;59.45
62928;BME280;51070;52.236;-0.892;2023-05-22T02:32:48;101257.30;;;13.37;59.62
62928;BME280;51070;52.236;-0.892;2023-05-22T02:35:13;101250.14;;;13.36;59.68
62928;BME280;51070;52.236;-0.892;2023-05-22T02:37:39;101248.58;;;13.36;59.66
62928;BME280;51070;52.236;-0.892;2023-05-22T02:40:06;101250.46;;;13.35;59.78
62928;BME280;51070;52.236;-0.892;2023-05-22T02:42:31;101244.66;;;13.33;59.87
62928;BME280;51070;52.236;-0.892;2023-05-22T02:44:57;101243.61;;;13.32;60.03
62928;BME280;51070;52.236;-0.892;2023-05-22T02:47:22;101240.67;;;13.32;59.98
62928;BME280;51070;52.236;-0.892;2023-05-22T02:49:48;101239.30;;;13.33;59.90
62928;BME280;51070;52.236;-0.892;2023-05-22T02:52:13;101242.02;;;13.31;59.87
62928;BME280;51070;52.236;-0.892;2023-05-22T02:54:39;101241.45;;;13.30;60.09
62928;BME280;51070;52.236;-0.892;2023-05-22T02:57:04;101244.02;;;13.28;60.00
62928;BME280;51070;52.236;-0.892;2023-05-22T02:59:30;101243.94;;;13.26;60.02
62928;BME280;51070;52.236;-0.892;2023-05-22T03:01:56;101243.86;;;13.24;60.12
62928;BME280;51070;52.236;-0.892;2023-05-22T03:04:21;101236.57;;;13.23;60.07
62928;BME280;51070;52.236;-0.892;2023-05-22T03:06:47;101235.93;;;13.19;60.15
62928;BME280;51070;52.236;-0.892;2023-05-22T03:09:12;101232.18;;;13.16;60.22
62928;BME280;51070;52.236;-0.892;2023-05-22T03:11:37;101232.40;;;13.12;60.28
62928;BME280;51070;52.236;-0.892;2023-05-22T03:14:03;101230.89;;;13.09;60.34
62928;BME280;51070;52.236;-0.892;2023-05-22T03:16:28;101228.91;;;13.06;60.26
62928;BME280;51070;52.236;-0.892;2023-05-22T03:19:10;101225.48;;;13.02;60.30
62928;BME280;51070;52.236;-0.892;2023-05-22T03:21:37;101226.59;;;12.98;60.28
62928;BME280;51070;52.236;-0.892;2023-05-22T03:24:03;101224.92;;;12.95;60.55
62928;BME280;51070;52.236;-0.892;2023-05-22T03:26:29;101226.07;;;12.92;60.61
62928;BME280;51070;52.236;-0.892;2023-05-22T03:28:55;101225.52;;;12.92;60.60
62928;BME280;51070;52.236;-0.892;2023-05-22T03:31:22;101222.48;;;12.89;60.58
62928;BME280;51070;52.236;-0.892;2023-05-22T03:33:48;101224.12;;;12.86;60.58
62928;BME280;51070;52.236;-0.892;2023-05-22T03:36:13;101228.36;;;12.82;60.69
62928;BME280;51070;52.236;-0.892;2023-05-22T03:38:39;101227.17;;;12.78;60.93
62928;BME280;51070;52.236;-0.892;2023-05-22T03:41:04;101228.27;;;12.74;61.02
62928;BME280;51070;52.236;-0.892;2023-05-22T03:43:29;101230.75;;;12.70;61.10
62928;BME280;51070;52.236;-0.892;2023-05-22T03:45:55;101227.90;;;12.68;61.32
62928;BME280;51070;52.236;-0.892;2023-05-22T03:48:20;101227.69;;;12.66;61.48
62928;BME280;51070;52.236;-0.892;2023-05-22T03:50:46;101231.23;;;12.64;61.37
62928;BME280;51070;52.236;-0.892;2023-05-22T03:53:11;101230.88;;;12.63;61.45
62928;BME280;51070;52.236;-0.892;2023-05-22T03:55:36;101228.19;;;12.61;61.71
62928;BME280;51070;52.236;-0.892;2023-05-22T03:58:02;101226.66;;;12.56;61.87
62928;BME280;51070;52.236;-0.892;2023-05-22T04:00:28;101224.56;;;12.55;61.89
62928;BME280;51070;52.236;-0.892;2023-05-22T04:02:53;101223.77;;;12.58;61.92
62928;BME280;51070;52.236;-0.892;2023-05-22T04:05:22;101220.27;;;12.56;61.91
62928;BME280;51070;52.236;-0.892;2023-05-22T04:07:48;101219.08;;;12.57;62.16
62928;BME280;51070;52.236;-0.892;2023-05-22T04:10:14;101217.67;;;12.56;61.94
62928;BME280;51070;52.236;-0.892;2023-05-22T04:12:39;101216.73;;;12.55;62.04
62928;BME280;51070;52.236;-0.892;2023-05-22T04:15:05;101216.70;;;12.54;62.19
62928;BME280;51070;52.236;-0.892;2023-05-22T04:17:31;101219.26;;;12.52;62.21
62928;BME280;51070;52.236;-0.892;2023-05-22T04:20:00;101218.79;;;12.54;62.11
62928;BME280;51070;52.236;-0.892;2023-05-22T04:22:26;101221.39;;;12.54;62.22
62928;BME280;51070;52.236;-0.892;2023-05-22T04:24:52;101223.13;;;12.54;62.01
62928;BME280;51070;52.236;-0.892;2023-05-22T04:27:17;101226.09;;;12.54;61.83
62928;BME280;51070;52.236;-0.892;2023-05-22T04:29:47;101221.29;;;12.56;62.03
62928;BME280;51070;52.236;-0.892;2023-05-22T04:32:12;101221.84;;;12.57;61.95
62928;BME280;51070;52.236;-0.892;2023-05-22T04:34:42;101222.26;;;12.54;61.88
62928;BME280;51070;52.236;-0.892;2023-05-22T04:37:09;101226.38;;;12.53;61.88
62928;BME280;51070;52.236;-0.892;2023-05-22T04:39:34;101222.91;;;12.53;61.72
62928;BME280;51070;52.236;-0.892;2023-05-22T04:42:00;101227.14;;;12.55;61.63
62928;BME280;51070;52.236;-0.892;2023-05-22T04:44:33;101228.95;;;12.56;61.45
62928;BME280;51070;52.236;-0.892;2023-05-22T04:47:02;101231.90;;;12.58;61.38
62928;BME280;51070;52.236;-0.892;2023-05-22T04:49:32;101235.84;;;12.55;61.15
62928;BME280;51070;52.236;-0.892;2023-05-22T04:51:58;101233.66;;;12.53;61.23
62928;BME280;51070;52.236;-0.892;2023-05-22T04:54:24;101235.95;;;12.54;60.97
62928;BME280;51070;52.236;-0.892;2023-05-22T04:56:49;101239.77;;;12.54;60.91
62928;BME280;51070;52.236;-0.892;2023-05-22T04:59:16;101240.66;;;12.55;60.98
62928;BME280;51070;52.236;-0.892;2023-05-22T05:01:44;101241.61;;;12.57;61.02
62928;BME280;51070;52.236;-0.892;2023-05-22T05:04:10;101241.81;;;12.58;60.94
62928;BME280;51070;52.236;-0.892;2023-05-22T05:06:36;101245.49;;;12.59;60.93
62928;BME280;51070;52.236;-0.892;2023-05-22T05:09:05;101245.95;;;12.63;60.92
62928;BME280;51070;52.236;-0.892;2023-05-22T05:11:31;101240.77;;;12.64;60.89
62928;BME280;51070;52.236;-0.892;2023-05-22T05:13:57;101240.00;;;12.67;60.81
62928;BME280;51070;52.236;-0.892;2023-05-22T05:16:22;101243.52;;;12.69;60.61
62928;BME280;51070;52.236;-0.892;2023-05-22T05:18:49;101244.34;;;12.72;60.55
62928;BME280;51070;52.236;-0.892;2023-05-22T05:21:16;101240.77;;;12.75;60.55
62928;BME280;51070;52.236;-0.892;2023-05-22T05:23:42;101245.68;;;12.76;60.40
62928;BME280;51070;52.236;-0.892;2023-05-22T05:26:08;101244.14;;;12.77;60.12
62928;BME280;51070;52.236;-0.892;2023-05-22T05:28:33;101247.45;;;12.77;59.81
62928;BME280;51070;52.236;-0.892;2023-05-22T05:30:59;101250.27;;;12.78;59.77
62928;BME280;51070;52.236;-0.892;2023-05-22T05:33:26;101251.51;;;12.79;59.31
62928;BME280;51070;52.236;-0.892;2023-05-22T05:35:52;101250.16;;;12.81;59.18
62928;BME280;51070;52.236;-0.892;2023-05-22T05:38:18;101251.11;;;12.89;59.15
62928;BME280;51070;52.236;-0.892;2023-05-22T05:40:44;101247.98;;;13.00;58.98
62928;BME280;51070;52.236;-0.892;2023-05-22T05:43:10;101248.12;;;13.10;58.74
62928;BME280;51070;52.236;-0.892;2023-05-22T05:45:35;101252.33;;;13.16;58.55
62928;BME280;51070;52.236;-0.892;2023-05-22T05:48:01;101253.20;;;13.22;58.42
62928;BME280;51070;52.236;-0.892;2023-05-22T05:50:26;101255.21;;;13.31;58.47
62928;BME280;51070;52.236;-0.892;2023-05-22T05:52:52;101252.07;;;13.42;58.27
62928;BME280;51070;52.236;-0.892;2023-05-22T05:55:17;101253.91;;;13.52;58.03
62928;BME280;51070;52.236;-0.892;2023-05-22T05:57:42;101256.41;;;13.61;57.66
62928;BME280;51070;52.236;-0.892;2023-05-22T06:00:09;101254.48;;;13.67;57.29
62928;BME280;51070;52.236;-0.892;2023-05-22T06:02:37;101253.66;;;13.74;57.33
62928;BME280;51070;52.236;-0.892;2023-05-22T06:05:03;101251.31;;;13.83;56.96
62928;BME280;51070;52.236;-0.892;2023-05-22T06:07:30;101248.02;;;13.89;56.67
62928;BME280;51070;52.236;-0.892;2023-05-22T06:09:56;101254.98;;;13.98;56.45
62928;BME280;51070;52.236;-0.892;2023-05-22T06:12:22;101256.11;;;14.07;56.22
62928;BME280;51070;52.236;-0.892;2023-05-22T06:14:48;101255.44;;;14.14;55.78
62928;BME280;51070;52.236;-0.892;2023-05-22T06:17:15;101254.49;;;14.18;55.70
62928;BME280;51070;52.236;-0.892;2023-05-22T06:19:40;101256.44;;;14.19;55.52
62928;BME280;51070;52.236;-0.892;2023-05-22T06:22:06;101255.86;;;14.23;55.77
62928;BME280;51070;52.236;-0.892;2023-05-22T06:24:32;101254.13;;;14.31;55.47
62928;BME280;51070;52.236;-0.892;2023-05-22T06:26:58;101254.64;;;14.36;55.38
62928;BME280;51070;52.236;-0.892;2023-05-22T06:29:23;101249.98;;;14.38;55.35
62928;BME280;51070;52.236;-0.892;2023-05-22T06:31:49;101255.58;;;14.38;55.18
62928;BME280;51070;52.236;-0.892;2023-05-22T06:34:14;101257.37;;;14.40;54.92
62928;BME280;51070;52.236;-0.892;2023-05-22T06:36:40;101259.47;;;14.41;54.89
62928;BME280;51070;52.236;-0.892;2023-05-22T06:39:06;101265.37;;;14.40;54.60
62928;BME280;51070;52.236;-0.892;2023-05-22T06:41:33;101264.90;;;14.30;54.61
62928;BME280;51070;52.236;-0.892;2023-05-22T06:44:00;101265.81;;;14.25;54.85
62928;BME280;51070;52.236;-0.892;2023-05-22T06:46:26;101267.38;;;14.25;54.92
62928;BME280;51070;52.236;-0.892;2023-05-22T06:48:52;101267.77;;;14.21;54.62
62928;BME280;51070;52.236;-0.892;2023-05-22T06:51:19;101274.13;;;14.17;55.01
62928;BME280;51070;52.236;-0.892;2023-05-22T06:53:45;101277.71;;;14.15;55.19
62928;BME280;51070;52.236;-0.892;2023-05-22T06:56:11;101277.91;;;14.16;55.45
62928;BME280;51070;52.236;-0.892;2023-05-22T06:58:36;101277.74;;;14.16;55.74
62928;BME280;51070;52.236;-0.892;2023-05-22T07:01:03;101281.66;;;14.13;55.41
62928;BME280;51070;52.236;-0.892;2023-05-22T07:03:29;101282.58;;;14.09;55.41
62928;BME280;51070;52.236;-0.892;2023-05-22T07:05:55;101290.65;;;14.05;55.26
62928;BME280;51070;52.236;-0.892;2023-05-22T07:08:22;101290.04;;;14.01;55.15
62928;BME280;51070;52.236;-0.892;2023-05-22T07:10:48;101291.48;;;14.03;55.18
62928;BME280;51070;52.236;-0.892;2023-05-22T07:13:13;101299.58;;;14.07;55.19
62928;BME280;51070;52.236;-0.892;2023-05-22T07:15:39;101302.04;;;14.08;55.46
62928;BME280;51070;52.236;-0.892;2023-05-22T07:18:04;101303.02;;;14.06;55.38
62928;BME280;51070;52.236;-0.892;2023-05-22T07:20:30;101308.02;;;14.05;55.45
62928;BME280;51070;52.236;-0.892;2023-05-22T07:22:56;101311.19;;;14.06;55.50
62928;BME280;51070;52.236;-0.892;2023-05-22T07:25:22;101310.55;;;14.14;55.31
62928;BME280;51070;52.236;-0.892;2023-05-22T07:27:48;101316.79;;;14.27;54.90
62928;BME280;51070;52.236;-0.892;2023-05-22T07:30:13;101315.00;;;14.44;54.35
62928;BME280;51070;52.236;-0.892;2023-05-22T07:32:39;101318.85;;;14.58;54.07
62928;BME280;51070;52.236;-0.892;2023-05-22T07:35:05;101317.91;;;14.69;53.82
62928;BME280;51070;52.236;-0.892;2023-05-22T07:37:31;101322.67;;;14.79;53.96
62928;BME280;51070;52.236;-0.892;2023-05-22T07:39:57;101327.11;;;14.82;53.10
62928;BME280;51070;52.236;-0.892;2023-05-22T07:42:23;101330.04;;;14.81;53.12
62928;BME280;51070;52.236;-0.892;2023-05-22T07:44:50;101329.05;;;14.83;53.12
62928;BME280;51070;52.236;-0.892;2023-05-22T07:47:16;101331.86;;;14.84;52.96
62928;BME280;51070;52.236;-0.892;2023-05-22T07:49:41;101335.44;;;14.88;53.05
62928;BME280;51070;52.236;-0.892;2023-05-22T07:52:07;101340.45;;;14.94;52.88
62928;BME280;51070;52.236;-0.892;2023-05-22T07:54:33;101340.70;;;14.97;52.89
62928;BME280;51070;52.236;-0.892;2023-05-22T07:56:58;101341.51;;;15.02;52.88
62928;BME280;51070;52.236;-0.892;2023-05-22T07:59:27;101341.45;;;15.07;52.98
62928;BME280;51070;52.236;-0.892;2023-05-22T08:01:53;101344.92;;;15.14;53.01
62928;BME280;51070;52.236;-0.892;2023-05-22T08:04:19;101348.11;;;15.24;52.81
62928;BME280;51070;52.236;-0.892;2023-05-22T08:06:44;101349.23;;;15.35;52.78
62928;BME280;51070;52.236;-0.892;2023-05-22T08:09:10;101351.09;;;15.46;52.92
62928;BME280;51070;52.236;-0.892;2023-05-22T08:11:36;101356.81;;;15.60;52.63
62928;BME280;51070;52.236;-0.892;2023-05-22T08:14:04;101357.95;;;15.73;52.22
62928;BME280;51070;52.236;-0.892;2023-05-22T08:16:30;101361.40;;;15.79;51.98
62928;BME280;51070;52.236;-0.892;2023-05-22T08:18:56;101362.98;;;15.80;51.76
62928;BME280;51070;52.236;-0.892;2023-05-22T08:21:22;101365.42;;;15.79;51.55
62928;BME280;51070;52.236;-0.892;2023-05-22T08:23:47;101368.11;;;15.83;51.51
62928;BME280;51070;52.236;-0.892;2023-05-22T08:26:13;101364.30;;;15.84;51.13
62928;BME280;51070;52.236;-0.892;2023-05-22T08:28:39;101369.38;;;15.85;51.22
62928;BME280;51070;52.236;-0.892;2023-05-22T08:31:09;101369.11;;;15.89;51.30
62928;BME280;51070;52.236;-0.892;2023-05-22T08:33:35;101370.74;;;15.93;50.93
62928;BME280;51070;52.236;-0.892;2023-05-22T08:36:01;101373.23;;;15.95;50.94
62928;BME280;51070;52.236;-0.892;2023-05-22T08:38:26;101376.14;;;16.01;50.90
62928;BME280;51070;52.236;-0.892;2023-05-22T08:40:52;101376.80;;;16.08;50.51
62928;BME280;51070;52.236;-0.892;2023-05-22T08:43:20;101378.04;;;16.17;50.25
62928;BME280;51070;52.236;-0.892;2023-05-22T08:45:58;101386.11;;;16.20;50.14
62928;BME280;51070;52.236;-0.892;2023-05-22T08:48:28;101387.68;;;16.20;49.75
62928;BME280;51070;52.236;-0.892;2023-05-22T08:50:57;101388.63;;;16.14;49.63
62928;BME280;51070;52.236;-0.892;2023-05-22T08:53:23;101390.88;;;16.14;49.88
62928;BME280;51070;52.236;-0.892;2023-05-22T08:55:53;101387.95;;;16.16;49.48
62928;BME280;51070;52.236;-0.892;2023-05-22T08:58:20;101386.63;;;16.19;49.19
62928;BME280;51070;52.236;-0.892;2023-05-22T09:00:46;101390.96;;;16.26;49.05
62928;BME280;51070;52.236;-0.892;2023-05-22T09:03:13;101389.61;;;16.38;48.89
62928;BME280;51070;52.236;-0.892;2023-05-22T09:05:40;101383.63;;;16.54;48.60
62928;BME280;51070;52.236;-0.892;2023-05-22T09:08:06;101384.91;;;16.64;48.63
62928;BME280;51070;52.236;-0.892;2023-05-22T09:10:35;101382.88;;;16.68;48.23
62928;BME280;51070;52.236;-0.892;2023-05-22T09:13:06;101387.73;;;16.66;48.10
62928;BME280;51070;52.236;-0.892;2023-05-22T09:15:34;101386.23;;;16.61;48.18
62928;BME280;51070;52.236;-0.892;2023-05-22T09:18:04;101390.66;;;16.57;48.39
62928;BME280;51070;52.236;-0.892;2023-05-22T09:20:34;101390.83;;;16.57;48.44
62928;BME280;51070;52.236;-0.892;2023-05-22T09:23:12;101386.50;;;16.49;47.96
62928;BME280;51070;52.236;-0.892;2023-05-22T09:25:46;101384.44;;;16.41;48.01
62928;BME280;51070;52.236;-0.892;2023-05-22T09:28:12;101380.59;;;16.41;48.23
62928;BME280;51070;52.236;-0.892;2023-05-22T09:30:38;101388.28;;;16.42;48.05
62928;BME280;51070;52.236;-0.892;2023-05-22T09:33:06;101388.75;;;16.39;48.02
62928;BME280;51070;52.236;-0.892;2023-05-22T09:35:34;101386.77;;;16.34;48.15
62928;BME280;51070;52.236;-0.892;2023-05-22T09:38:00;101385.85;;;16.32;47.98
62928;BME280;51070;52.236;-0.892;2023-05-22T09:40:26;101384.98;;;16.33;47.90
62928;BME280;51070;52.236;-0.892;2023-05-22T09:42:53;101381.28;;;16.40;48.01
62928;BME280;51070;52.236;-0.892;2023-05-22T09:45:20;101378.83;;;16.49;47.78
62928;BME280;51070;52.236;-0.892;2023-05-22T09:47:48;101376.97;;;16.61;47.69
62928;BME280;51070;52.236;-0.892;2023-05-22T09:50:15;101378.45;;;16.74;47.39
62928;BME280;51070;52.236;-0.892;2023-05-22T09:52:43;101375.94;;;16.92;46.91
62928;BME280;51070;52.236;-0.892;2023-05-22T09:55:09;101377.70;;;17.13;46.34
62928;BME280;51070;52.236;-0.892;2023-05-22T09:57:44;101376.58;;;17.31;45.86
62928;BME280;51070;52.236;-0.892;2023-05-22T10:00:12;101374.41;;;17.61;45.70
62928;BME280;51070;52.236;-0.892;2023-05-22T10:02:44;101377.15;;;17.95;45.02
62928;BME280;51070;52.236;-0.892;2023-05-22T10:05:11;101372.21;;;18.08;44.35
62928;BME280;51070;52.236;-0.892;2023-05-22T10:07:46;101374.05;;;18.13;44.26
62928;BME280;51070;52.236;-0.892;2023-05-22T10:10:16;101368.79;;;18.13;44.05
62928;BME280;51070;52.236;-0.892;2023-05-22T10:12:55;101370.02;;;18.15;44.01
62928;BME280;51070;52.236;-0.892;2023-05-22T10:15:22;101369.83;;;18.28;43.87
62928;BME280;51070;52.236;-0.892;2023-05-22T10:17:48;101370.73;;;18.47;43.08
62928;BME280;51070;52.236;-0.892;2023-05-22T10:20:14;101369.84;;;18.59;42.68
62928;BME280;51070;52.236;-0.892;2023-05-22T10:22:41;101373.77;;;18.66;42.49
62928;BME280;51070;52.236;-0.892;2023-05-22T10:25:08;101374.86;;;18.71;42.17
62928;BME280;51070;52.236;-0.892;2023-05-22T10:27:33;101374.36;;;18.75;41.74
62928;BME280;51070;52.236;-0.892;2023-05-22T10:30:07;101376.31;;;18.76;41.59
62928;BME280;51070;52.236;-0.892;2023-05-22T10:32:41;101372.65;;;18.78;41.41
62928;BME280;51070;52.236;-0.892;2023-05-22T10:40:58;101366.80;;;18.91;41.41
62928;BME280;51070;52.236;-0.892;2023-05-22T10:43:24;101368.27;;;19.00;41.14
62928;BME280;51070;52.236;-0.892;2023-05-22T10:46:04;101367.57;;;18.99;41.37
62928;BME280;51070;52.236;-0.892;2023-05-22T10:48:37;101365.47;;;19.01;41.38
62928;BME280;51070;52.236;-0.892;2023-05-22T10:51:05;101365.01;;;19.08;41.21
62928;BME280;51070;52.236;-0.892;2023-05-22T10:53:31;101368.81;;;19.26;41.23
62928;BME280;51070;52.236;-0.892;2023-05-22T10:55:58;101364.64;;;19.54;41.32
62928;BME280;51070;52.236;-0.892;2023-05-22T10:58:32;101363.77;;;19.91;40.74
62928;BME280;51070;52.236;-0.892;2023-05-22T11:01:19;101360.23;;;20.32;40.21
62928;BME280;51070;52.236;-0.892;2023-05-22T11:04:00;101351.89;;;20.75;39.47
62928;BME280;51070;52.236;-0.892;2023-05-22T11:06:36;101352.77;;;20.95;38.70
62928;BME280;51070;52.236;-0.892;2023-05-22T11:17:27;101347.11;;;22.85;34.22
62928;BME280;51070;52.236;-0.892;2023-05-22T11:20:03;101343.78;;;23.01;33.61
62928;BME280;51070;52.236;-0.892;2023-05-22T11:22:54;101347.23;;;23.29;33.13
62928;BME280;51070;52.236;-0.892;2023-05-22T11:25:21;101341.61;;;23.26;32.78
62928;BME280;51070;52.236;-0.892;2023-05-22T11:27:47;101343.23;;;23.39;32.88
62928;BME280;51070;52.236;-0.892;2023-05-22T11:30:14;101343.71;;;23.45;32.86
62928;BME280;51070;52.236;-0.892;2023-05-22T11:32:42;101345.48;;;23.43;32.68
62928;BME280;51070;52.236;-0.892;2023-05-22T11:35:21;101344.25;;;23.61;32.76
62928;BME280;51070;52.236;-0.892;2023-05-22T11:37:47;101341.65;;;23.73;32.43
62928;BME280;51070;52.236;-0.892;2023-05-22T11:40:18;101340.16;;;23.66;32.96
62928;BME280;51070;52.236;-0.892;2023-05-22T11:42:46;101337.80;;;23.55;32.67
62928;BME280;51070;52.236;-0.892;2023-05-22T11:45:11;101341.98;;;23.44;32.50
62928;BME280;51070;52.236;-0.892;2023-05-22T11:47:37;101344.14;;;23.37;32.39
62928;BME280;51070;52.236;-0.892;2023-05-22T11:50:04;101348.36;;;23.38;32.61
62928;BME280;51070;52.236;-0.892;2023-05-22T11:52:32;101347.67;;;23.55;32.35
62928;BME280;51070;52.236;-0.892;2023-05-22T11:54:57;101343.59;;;23.58;32.46
62928;BME280;51070;52.236;-0.892;2023-05-22T11:57:23;101347.97;;;23.60;32.49
62928;BME280;51070;52.236;-0.892;2023-05-22T11:59:49;101347.36;;;23.52;32.31
62928;BME280;51070;52.236;-0.892;2023-05-22T12:02:15;101347.44;;;23.42;32.81
62928;BME280;51070;52.236;-0.892;2023-05-22T12:04:41;101346.19;;;23.45;33.08
62928;BME280;51070;52.236;-0.892;2023-05-22T12:07:07;101345.81;;;23.64;32.49
62928;BME280;51070;52.236;-0.892;2023-05-22T12:09:33;101342.23;;;23.82;32.12
62928;BME280;51070;52.236;-0.892;2023-05-22T12:11:58;101343.27;;;23.98;31.39
62928;BME280;51070;52.236;-0.892;2023-05-22T12:14:28;101339.78;;;23.95;32.10
62928;BME280;51070;52.236;-0.892;2023-05-22T12:16:57;101337.52;;;23.94;32.13
62928;BME280;51070;52.236;-0.892;2023-05-22T12:19:24;101336.84;;;23.91;32.33
62928;BME280;51070;52.236;-0.892;2023-05-22T12:21:50;101334.98;;;23.98;31.77
62928;BME280;51070;52.236;-0.892;2023-05-22T12:24:16;101330.66;;;24.04;31.57
62928;BME280;51070;52.236;-0.892;2023-05-22T12:26:54;101325.13;;;24.34;31.77
62928;BME280;51070;52.236;-0.892;2023-05-22T12:29:23;101325.54;;;24.53;31.18
62928;BME280;51070;52.236;-0.892;2023-05-22T12:31:49;101318.39;;;24.48;31.08
62928;BME280;51070;52.236;-0.892;2023-05-22T12:34:16;101321.29;;;24.44;31.09
62928;BME280;51070;52.236;-0.892;2023-05-22T12:36:46;101319.90;;;24.41;30.83
62928;BME280;51070;52.236;-0.892;2023-05-22T12:39:16;101312.70;;;24.39;31.08
62928;BME280;51070;52.236;-0.892;2023-05-22T12:41:43;101311.69;;;24.46;31.32
62928;BME280;51070;52.236;-0.892;2023-05-22T12:44:09;101308.98;;;24.51;31.12
62928;BME280;51070;52.236;-0.892;2023-05-22T12:46:35;101313.25;;;24.37;31.38
62928;BME280;51070;52.236;-0.892;2023-05-22T12:49:01;101310.68;;;24.19;31.42
62928;BME280;51070;52.236;-0.892;2023-05-22T12:51:28;101314.09;;;24.03;31.49
62928;BME280;51070;52.236;-0.892;2023-05-22T12:53:57;101316.56;;;23.89;31.68
62928;BME280;51070;52.236;-0.892;2023-05-22T12:56:23;101310.69;;;23.79;32.04
62928;BME280;51070;52.236;-0.892;2023-05-22T12:58:49;101311.99;;;23.73;32.17
62928;BME280;51070;52.236;-0.892;2023-05-22T13:01:15;101312.69;;;23.60;32.18
62928;BME280;51070;52.236;-0.892;2023-05-22T13:03:41;101310.21;;;23.44;32.03
62928;BME280;51070;52.236;-0.892;2023-05-22T13:06:06;101309.18;;;23.39;32.29
62928;BME280;51070;52.236;-0.892;2023-05-22T13:08:32;101313.88;;;23.48;32.29
62928;BME280;51070;52.236;-0.892;2023-05-22T13:10:57;101317.23;;;23.49;32.28
62928;BME280;51070;52.236;-0.892;2023-05-22T13:13:23;101313.29;;;23.36;32.44
62928;BME280;51070;52.236;-0.892;2023-05-22T13:15:48;101311.77;;;23.31;32.68
62928;BME280;51070;52.236;-0.892;2023-05-22T13:18:14;101307.04;;;23.44;32.71